Time;durP1;ratioP1;P1;durP2;ratioP2;P2;SDS_P1;SDS_P2;PMS_P1;PMS_P2;Temp;Humidity;BMP_temperature;BMP_pressure;BME280_temperature;BME280_humidity;BME280_pressure;Samples;Min_cycle;Max_cycle;Signal;HPM_P1;HPM_P2
2022/07/06 03:00:51;;;;;;;20.15;18.05;;;21.60;99.90;22.50;98677.00;;;;4850366;29;87499;-62
2022/07/06 03:03:18;;;;;;;20.23;18.00;;;22.10;99.90;22.90;98664.00;;;;4858612;29;87133;-62
2022/07/06 03:05:46;;;;;;;25.38;17.00;;;22.50;99.90;23.20;98679.00;;;;4861934;29;89038;-65
2022/07/06 03:08:13;;;;;;;23.73;16.77;;;22.80;99.90;23.60;98657.00;;;;4847395;29;87095;-64
2022/07/06 03:10:40;;;;;;;18.17;15.95;;;23.20;99.90;24.10;98652.00;;;;4850392;29;87367;-66
2022/07/06 03:13:07;;;;;;;21.35;15.88;;;23.70;99.90;24.60;98643.00;;;;4862129;29;88371;-63
2022/07/06 03:15:34;;;;;;;20.50;15.15;;;24.10;99.90;24.80;98650.00;;;;4865930;29;87007;-66
2022/07/06 03:18:00;;;;;;;22.05;16.38;;;24.30;99.90;25.20;98643.00;;;;4866534;29;87552;-64
2022/07/06 03:20:26;;;;;;;20.90;15.80;;;24.70;99.90;25.80;98658.00;;;;4865335;29;87781;-66
2022/07/06 03:22:52;;;;;;;23.65;15.95;;;25.30;99.90;26.20;98647.00;;;;4850834;29;87486;-63
2022/07/06 03:25:19;;;;;;;18.55;15.05;;;25.60;99.90;26.40;98655.00;;;;4869047;28;88173;-63
2022/07/06 03:27:45;;;;;;;16.88;15.00;;;25.80;99.90;26.50;98656.00;;;;4866514;29;87024;-66
2022/07/06 03:30:14;;;;;;;20.45;16.20;;;25.90;99.90;26.60;98662.00;;;;4866215;29;89056;-61
2022/07/06 03:32:44;;;;;;;18.98;14.80;;;26.00;99.90;26.70;98657.00;;;;4850304;29;89322;-62
2022/07/06 03:35:11;;;;;;;19.35;16.17;;;26.10;99.90;27.20;98656.00;;;;4865688;29;87506;-62
2022/07/06 03:37:37;;;;;;;19.33;16.13;;;26.60;99.90;27.30;98665.00;;;;4866095;29;87208;-61
2022/07/06 03:40:05;;;;;;;16.90;14.50;;;26.70;99.90;27.40;98659.00;;;;4850123;29;87670;-62
2022/07/06 03:42:32;;;;;;;15.68;14.02;;;26.90;99.90;28.00;98662.00;;;;4850360;29;88667;-61
2022/07/06 03:44:58;;;;;;;17.13;14.38;;;27.40;99.90;28.30;98658.00;;;;4866348;29;87414;-61
2022/07/06 03:47:26;;;;;;;16.40;14.60;;;27.60;99.90;28.90;98651.00;;;;4865558;29;86275;-62
2022/07/06 03:49:52;;;;;;;18.88;13.82;;;28.30;99.90;29.30;98663.00;;;;4849165;29;89218;-62
2022/07/06 03:52:18;;;;;;;19.83;15.25;;;28.70;99.90;29.50;98670.00;;;;4865191;29;87955;-62
2022/07/06 03:54:50;;;;;;;18.42;13.63;;;28.80;99.90;29.40;98672.00;;;;4848626;29;88318;-63
2022/07/06 03:57:22;;;;;;;18.23;14.35;;;28.80;99.90;29.20;98681.00;;;;4864970;29;87147;-63
2022/07/06 03:59:49;;;;;;;15.73;13.10;;;28.50;99.90;29.40;98670.00;;;;4864278;29;87706;-63
2022/07/06 04:02:15;;;;;;;16.33;14.45;;;28.60;99.90;29.30;98667.00;;;;4865565;29;87455;-63
2022/07/06 04:04:42;;;;;;;20.33;14.60;;;28.50;99.90;29.00;98664.00;;;;4864696;29;87153;-62
2022/07/06 04:07:08;;;;;;;20.52;16.63;;;28.30;99.90;29.10;98666.00;;;;4866015;29;87063;-62
2022/07/06 04:09:36;;;;;;;19.83;17.80;;;28.10;99.90;28.70;98671.00;;;;4864337;29;87608;-62
2022/07/06 04:12:02;;;;;;;21.50;16.85;;;27.80;99.90;28.50;98671.00;;;;4865282;29;87192;-62
2022/07/06 04:14:29;;;;;;;22.20;16.50;;;27.70;99.90;28.40;98673.00;;;;4848843;29;87186;-64
2022/07/06 04:16:55;;;;;;;21.65;17.60;;;27.60;99.90;28.60;98668.00;;;;4864144;29;88109;-62
2022/07/06 04:19:22;;;;;;;22.88;16.92;;;27.80;99.90;28.80;98662.00;;;;4863905;29;88690;-63
2022/07/06 04:21:49;;;;;;;21.27;17.70;;;27.90;99.90;28.80;98662.00;;;;4864072;28;88546;-63
2022/07/06 04:24:15;;;;;;;28.63;16.90;;;27.90;99.90;28.80;98663.00;;;;4865694;29;87029;-63
2022/07/06 04:26:42;;;;;;;23.75;17.90;;;28.00;99.90;29.00;98661.00;;;;4864087;29;87817;-63
2022/07/06 04:29:09;;;;;;;20.70;16.38;;;28.10;99.90;29.20;98659.00;;;;4848660;29;88043;-62
2022/07/06 04:31:37;;;;;;;20.40;18.25;;;28.40;99.90;29.40;98667.00;;;;4862235;29;87250;-62
2022/07/06 04:34:05;;;;;;;20.48;17.17;;;28.60;99.90;29.30;98677.00;;;;4864456;29;87014;-62
2022/07/06 04:36:31;;;;;;;21.27;16.90;;;28.50;99.90;29.00;98670.00;;;;4864048;29;86289;-62
2022/07/06 04:38:58;;;;;;;22.13;17.48;;;28.10;99.90;28.60;98677.00;;;;4865066;29;88771;-62
2022/07/06 04:41:25;;;;;;;22.27;18.42;;;27.80;99.90;28.30;98668.00;;;;4864343;29;88472;-61
2022/07/06 04:43:52;;;;;;;19.80;17.63;;;27.50;99.90;28.30;98661.00;;;;4864984;29;88158;-61
2022/07/06 04:46:19;;;;;;;21.08;16.45;;;27.50;99.90;28.40;98669.00;;;;4833814;29;87354;-62
2022/07/06 04:48:49;;;;;;;20.67;17.15;;;27.50;99.90;28.70;98657.00;;;;4864478;29;87747;-61
2022/07/06 04:51:21;;;;;;;27.10;16.63;;;27.80;99.90;29.00;98660.00;;;;4864712;29;88035;-61
2022/07/06 04:53:47;;;;;;;18.48;15.32;;;28.10;99.90;29.60;98661.00;;;;4864796;29;87676;-61
2022/07/06 04:56:13;;;;;;;19.42;13.95;;;28.70;99.90;30.20;98650.00;;;;4865573;29;86993;-61
2022/07/06 04:58:40;;;;;;;17.05;13.80;;;29.10;99.90;30.50;98661.00;;;;4865238;29;87620;-61
2022/07/06 05:01:10;;;;;;;17.05;13.40;;;29.50;99.90;30.80;98659.00;;;;4862317;29;87377;-62
2022/07/06 05:03:40;;;;;;;19.60;13.20;;;29.80;99.90;31.10;98655.00;;;;4848912;29;87238;-62
2022/07/06 05:06:08;;;;;;;19.70;15.30;;;30.00;99.90;31.10;98662.00;;;;4860338;29;87132;-62
2022/07/06 05:08:34;;;;;;;25.75;14.52;;;30.10;99.90;31.10;98663.00;;;;4847915;29;88645;-62
2022/07/06 05:11:01;;;;;;;17.75;13.25;;;30.00;99.90;31.30;98654.00;;;;4861830;29;88404;-62
2022/07/06 05:13:27;;;;;;;17.33;13.52;;;30.20;99.90;31.60;98656.00;;;;4863610;29;87267;-62
2022/07/06 05:15:55;;;;;;;16.42;13.30;;;30.40;99.90;32.00;98657.00;;;;4862467;29;87006;-61
2022/07/06 05:18:21;;;;;;;17.63;15.77;;;30.70;99.90;32.10;98650.00;;;;4864193;29;88100;-62
2022/07/06 05:20:47;;;;;;;19.05;17.05;;;30.80;99.90;32.00;98640.00;;;;4862700;29;88478;-61
2022/07/06 05:23:13;;;;;;;18.92;16.55;;;30.80;99.90;31.90;98653.00;;;;4863541;29;87075;-61
2022/07/06 05:25:40;;;;;;;19.38;16.15;;;30.70;99.90;32.00;98647.00;;;;4864074;29;86208;-61
2022/07/06 05:28:06;;;;;;;18.85;16.52;;;30.90;99.90;31.30;98645.00;;;;4864076;29;87598;-62
2022/07/06 05:30:33;;;;;;;22.08;15.98;;;30.20;99.90;30.90;98651.00;;;;4863519;29;88084;-62
2022/07/06 05:32:59;;;;;;;20.25;16.83;;;29.90;99.90;30.70;98653.00;;;;4862740;29;87984;-61
2022/07/06 05:35:25;;;;;;;22.52;16.80;;;29.80;99.90;31.20;98646.00;;;;4863530;29;87351;-62
2022/07/06 05:37:52;;;;;;;22.83;16.95;;;30.10;99.90;31.40;98651.00;;;;4863529;29;87779;-62
2022/07/06 05:40:19;;;;;;;19.48;15.88;;;30.40;99.90;31.50;98651.00;;;;4864860;29;88577;-61
2022/07/06 05:42:45;;;;;;;18.55;16.50;;;30.40;99.90;31.50;98648.00;;;;4864176;29;86944;-62
2022/07/06 05:45:12;;;;;;;17.45;15.30;;;30.60;99.90;31.50;98642.00;;;;4848174;29;87077;-61
2022/07/06 05:50:24;;;;;;;20.33;15.70;;;30.30;99.90;30.70;98661.00;;;;4848433;29;86555;-61
2022/07/06 05:53:04;;;;;;;21.90;15.27;;;29.90;99.90;30.80;98652.00;;;;4864156;29;87008;-63
2022/07/06 05:55:31;;;;;;;16.85;15.10;;;29.90;99.90;30.90;98653.00;;;;4864175;29;87474;-63
2022/07/06 05:57:59;;;;;;;18.95;13.57;;;30.00;99.90;31.00;98659.00;;;;4846317;29;88786;-61
2022/07/06 06:00:28;;;;;;;14.57;12.57;;;30.10;99.90;31.00;98658.00;;;;4861994;29;91675;-61
2022/07/06 06:02:59;;;;;;;18.67;14.75;;;30.00;99.90;30.90;98657.00;;;;4862415;28;87584;-61
2022/07/06 06:05:25;;;;;;;20.02;14.75;;;30.00;99.90;31.00;98650.00;;;;4847668;29;87465;-62
2022/07/06 06:07:56;;;;;;;15.15;13.55;;;30.00;99.90;31.00;98651.00;;;;4863008;29;88234;-60
2022/07/06 06:10:25;;;;;;;15.70;13.00;;;30.10;99.90;30.90;98652.00;;;;4862772;29;87537;-62
2022/07/06 06:12:54;;;;;;;14.60;12.30;;;30.00;99.90;30.80;98657.00;;;;4863605;29;87468;-61
2022/07/06 06:15:21;;;;;;;15.60;10.95;;;29.90;99.90;31.00;98654.00;;;;4863854;29;86692;-61
2022/07/06 06:17:48;;;;;;;17.92;11.70;;;30.00;99.90;31.00;98653.00;;;;4862782;29;87627;-62
2022/07/06 06:20:15;;;;;;;15.82;10.95;;;30.00;99.90;30.70;98662.00;;;;4863118;28;89502;-62
2022/07/06 06:22:56;;;;;;;17.42;11.35;;;29.70;99.90;30.50;98662.00;;;;4863486;29;88615;-60
2022/07/06 06:25:31;;;;;;;14.23;11.15;;;29.60;99.90;30.50;98660.00;;;;4863687;29;87555;-61
2022/07/06 06:27:58;;;;;;;21.13;11.52;;;29.60;99.90;30.50;98655.00;;;;4864025;29;87639;-60
2022/07/06 06:30:24;;;;;;;17.27;11.90;;;29.60;99.90;30.40;98647.00;;;;4847035;29;87487;-61
2022/07/06 06:32:51;;;;;;;15.80;11.88;;;29.50;99.90;30.10;98639.00;;;;4864126;29;87212;-61
2022/07/06 06:35:17;;;;;;;14.25;12.23;;;29.30;99.90;29.80;98648.00;;;;4864096;29;87061;-60
2022/07/06 06:37:43;;;;;;;14.05;12.65;;;29.00;99.90;29.50;98646.00;;;;4845196;29;87567;-60
2022/07/06 06:40:10;;;;;;;12.60;11.30;;;28.90;99.90;29.20;98648.00;;;;4846340;29;88346;-60
2022/07/06 06:42:39;;;;;;;11.73;10.52;;;28.70;99.90;29.00;98637.00;;;;4864793;29;87454;-62
2022/07/06 06:45:10;;;;;;;18.45;11.70;;;28.70;99.90;28.90;98636.00;;;;4866440;29;86982;-62
2022/07/06 06:47:36;;;;;;;12.73;10.75;;;28.50;99.90;28.70;98642.00;;;;4866920;29;88574;-62
2022/07/06 06:50:03;;;;;;;17.77;11.27;;;28.30;99.90;28.60;98637.00;;;;4864836;29;89540;-62
2022/07/06 06:52:29;;;;;;;18.50;12.80;;;28.30;99.90;28.70;98647.00;;;;4865221;29;87053;-62
2022/07/06 06:54:55;;;;;;;15.73;12.00;;;28.30;99.90;28.50;98644.00;;;;4867492;29;87451;-62
2022/07/06 06:57:22;;;;;;;19.98;13.13;;;28.20;99.90;28.40;98646.00;;;;4867310;29;87765;-61
2022/07/06 06:59:48;;;;;;;15.20;12.70;;;28.10;99.90;28.30;98650.00;;;;4864979;29;88477;-61
2022/07/06 07:02:14;;;;;;;17.17;12.32;;;28.00;99.90;28.60;98640.00;;;;4863363;29;87129;-62
2022/07/06 07:04:40;;;;;;;13.43;11.73;;;28.20;99.90;28.70;98648.00;;;;4846557;29;86371;-61
2022/07/06 07:07:06;;;;;;;13.18;11.88;;;28.30;99.90;28.70;98642.00;;;;4863012;29;87668;-61
2022/07/06 07:09:32;;;;;;;16.55;12.02;;;28.30;99.90;28.60;98650.00;;;;4863689;29;87529;-61
2022/07/06 07:11:58;;;;;;;16.33;11.25;;;28.10;99.90;28.20;98648.00;;;;4865983;29;87901;-61
2022/07/06 07:14:24;;;;;;;15.25;12.55;;;27.80;99.90;28.30;98653.00;;;;4866857;29;87009;-61
2022/07/06 07:16:50;;;;;;;18.98;12.50;;;27.90;99.90;28.50;98653.00;;;;4867064;29;87543;-61
2022/07/06 07:19:17;;;;;;;14.93;11.00;;;28.10;99.90;28.50;98652.00;;;;4866753;29;87355;-61
2022/07/06 07:21:43;;;;;;;14.95;10.63;;;28.10;99.90;28.50;98653.00;;;;4865336;28;87834;-62
2022/07/06 07:24:09;;;;;;;13.65;10.93;;;28.00;99.90;28.40;98653.00;;;;4867038;29;87053;-62
2022/07/06 07:26:36;;;;;;;12.02;9.95;;;28.10;99.90;28.40;98645.00;;;;4866700;29;87037;-61
2022/07/06 07:29:02;;;;;;;12.40;10.32;;;28.00;99.90;28.40;98649.00;;;;4866058;29;88576;-62
2022/07/06 07:31:29;;;;;;;13.50;10.50;;;28.10;99.90;28.60;98654.00;;;;4865666;29;87037;-61
2022/07/06 07:33:56;;;;;;;14.95;11.48;;;28.20;99.90;28.70;98637.00;;;;4866117;29;87097;-61
2022/07/06 07:36:24;;;;;;;13.80;10.75;;;28.20;99.90;28.70;98645.00;;;;4865142;29;88804;-61
2022/07/06 07:38:50;;;;;;;21.30;15.07;;;28.30;99.90;28.80;98644.00;;;;4865346;29;88387;-61
2022/07/06 07:41:17;;;;;;;16.00;10.50;;;28.40;99.90;28.80;98646.00;;;;4861343;28;87623;-61
2022/07/06 07:43:43;;;;;;;11.82;10.50;;;28.40;99.90;28.80;98648.00;;;;4866455;29;87052;-62
2022/07/06 07:46:10;;;;;;;13.75;11.25;;;28.40;99.90;28.90;98649.00;;;;4866516;29;87623;-61
2022/07/06 07:48:36;;;;;;;12.10;10.43;;;28.50;99.90;28.90;98647.00;;;;4866614;29;87473;-61
2022/07/06 07:51:03;;;;;;;13.98;11.55;;;28.50;99.90;28.70;98641.00;;;;4865653;29;86967;-61
2022/07/06 07:53:29;;;;;;;13.93;11.40;;;28.30;99.90;28.60;98647.00;;;;4850017;29;86899;-62
2022/07/06 07:55:55;;;;;;;14.45;10.65;;;28.20;99.90;28.50;98649.00;;;;4864834;29;87698;-61
2022/07/06 07:58:21;;;;;;;14.20;11.70;;;28.10;99.90;28.50;98644.00;;;;4864668;29;87428;-61
2022/07/06 08:00:48;;;;;;;14.10;11.23;;;28.20;99.90;28.60;98645.00;;;;4863512;29;88184;-61
2022/07/06 08:03:14;;;;;;;13.32;10.75;;;28.20;99.90;28.60;98651.00;;;;4863288;29;87071;-62
2022/07/06 08:05:40;;;;;;;15.15;11.10;;;28.30;99.90;28.90;98644.00;;;;4865938;29;87685;-61
2022/07/06 08:08:06;;;;;;;14.98;11.00;;;28.50;99.90;29.00;98647.00;;;;4865854;29;87527;-60
2022/07/06 08:10:33;;;;;;;14.27;10.35;;;28.70;99.90;29.10;98646.00;;;;4866443;29;87216;-60
2022/07/06 08:12:59;;;;;;;14.25;11.13;;;28.70;99.90;29.10;98643.00;;;;4848960;29;87039;-60
2022/07/06 08:15:25;;;;;;;13.05;10.30;;;28.80;99.90;29.20;98645.00;;;;4865815;29;88884;-60
2022/07/06 08:17:51;;;;;;;13.07;9.88;;;28.80;99.90;29.10;98640.00;;;;4865982;29;87476;-60
2022/07/06 08:20:18;;;;;;;18.83;10.77;;;28.70;99.90;29.00;98645.00;;;;4866226;28;87302;-60
2022/07/06 08:22:44;;;;;;;11.32;10.10;;;28.70;99.90;29.00;98640.00;;;;4865271;28;87048;-60
2022/07/06 08:25:11;;;;;;;11.95;10.75;;;28.60;99.90;28.80;98644.00;;;;4865368;29;88488;-59
2022/07/06 08:27:37;;;;;;;13.57;10.98;;;28.50;99.90;28.90;98640.00;;;;4865996;29;88264;-61
2022/07/06 08:30:05;;;;;;;12.38;11.07;;;28.50;99.90;29.00;98637.00;;;;4865650;29;87005;-60
2022/07/06 08:32:31;;;;;;;12.35;10.65;;;28.70;99.90;29.10;98636.00;;;;4865390;29;86995;-61
2022/07/06 08:34:57;;;;;;;15.50;11.27;;;28.70;99.90;29.30;98640.00;;;;4864501;29;88704;-61
2022/07/06 08:37:23;;;;;;;12.20;11.00;;;28.90;99.90;29.30;98646.00;;;;4865473;29;88717;-61
2022/07/06 08:39:49;;;;;;;13.80;10.95;;;29.00;99.90;29.30;98651.00;;;;4865852;29;87033;-61
2022/07/06 08:42:16;;;;;;;15.98;11.75;;;28.80;99.90;28.80;98642.00;;;;4865964;29;86541;-61
2022/07/06 08:44:44;;;;;;;15.13;11.88;;;28.50;99.90;29.00;98639.00;;;;4865169;29;87762;-61
2022/07/06 08:47:12;;;;;;;12.30;11.05;;;28.60;99.90;29.10;98636.00;;;;4865207;29;87510;-61
2022/07/06 08:49:43;;;;;;;13.82;11.65;;;28.70;99.90;29.30;98643.00;;;;4833771;29;88003;-62
2022/07/06 08:52:10;;;;;;;13.23;11.05;;;28.90;99.90;29.60;98632.00;;;;4848926;29;87141;-62
2022/07/06 08:54:37;;;;;;;15.88;12.50;;;29.10;99.90;29.70;98625.00;;;;4864725;29;87749;-62
2022/07/06 08:57:04;;;;;;;14.02;12.45;;;29.20;99.90;29.70;98627.00;;;;4865414;29;88348;-61
2022/07/06 08:59:31;;;;;;;16.45;12.38;;;29.20;99.90;29.70;98628.00;;;;4847808;29;87079;-61
2022/07/06 09:02:00;;;;;;;15.15;12.30;;;29.20;99.90;29.70;98627.00;;;;4864821;29;87259;-60
2022/07/06 09:04:26;;;;;;;13.75;12.30;;;29.30;99.90;29.80;98614.00;;;;4864278;29;87768;-61
2022/07/06 09:06:54;;;;;;;13.75;12.30;;;29.40;99.90;29.80;98631.00;;;;4848336;29;88210;-61
2022/07/06 09:09:24;;;;;;;13.90;12.38;;;29.30;99.90;29.90;98627.00;;;;4864380;29;87276;-61
2022/07/06 09:11:51;;;;;;;15.95;12.90;;;29.50;99.90;29.80;98625.00;;;;4865401;29;86978;-62
2022/07/06 09:14:21;;;;;;;13.35;11.82;;;29.20;99.90;29.80;98619.00;;;;4847314;29;88719;-61
2022/07/06 09:17:02;;;;;;;15.75;12.07;;;29.40;99.90;30.10;98626.00;;;;4865187;29;88453;-62
2022/07/06 09:19:30;;;;;;;15.25;13.07;;;29.50;99.90;29.80;98624.00;;;;4865000;29;87495;-61
2022/07/06 09:21:56;;;;;;;18.30;12.57;;;29.30;99.90;30.00;98619.00;;;;4863956;28;87019;-61
2022/07/06 09:24:24;;;;;;;17.75;13.38;;;29.60;99.90;29.90;98614.00;;;;4864628;29;87788;-61
2022/07/06 09:26:50;;;;;;;14.25;12.65;;;29.50;99.90;30.20;98616.00;;;;4865081;29;87649;-60
2022/07/06 09:29:16;;;;;;;20.15;12.88;;;29.80;99.90;30.50;98619.00;;;;4864558;29;86971;-61
2022/07/06 09:31:45;;;;;;;14.82;12.82;;;30.00;99.90;30.10;98622.00;;;;4864035;29;86753;-61
2022/07/06 09:34:11;;;;;;;16.65;12.45;;;29.50;99.90;29.90;98613.00;;;;4847070;29;87651;-61
2022/07/06 09:36:44;;;;;;;14.57;13.07;;;29.40;99.90;30.20;98621.00;;;;4864353;29;87755;-61
2022/07/06 09:39:29;;;;;;;18.70;14.02;;;29.70;99.90;30.90;98609.00;;;;4864674;29;87944;-60
2022/07/06 09:41:59;;;;;;;18.38;12.20;;;30.30;99.90;31.00;98594.00;;;;4864471;29;87270;-60
2022/07/06 09:44:28;;;;;;;12.50;11.23;;;30.40;99.90;30.70;98611.00;;;;4864714;29;87009;-62
2022/07/06 09:47:02;;;;;;;14.23;11.27;;;30.10;99.90;31.00;98619.00;;;;4863826;29;88548;-62
2022/07/06 09:49:29;;;;;;;13.85;12.35;;;30.40;99.90;31.30;98597.00;;;;4864580;29;87162;-61
2022/07/06 09:52:01;;;;;;;13.23;11.35;;;30.70;99.90;31.50;98595.00;;;;4864458;29;87035;-62
2022/07/06 09:54:27;;;;;;;14.18;11.38;;;31.00;99.90;31.30;98598.00;;;;4862885;29;87661;-61
2022/07/06 09:56:55;;;;;;;20.30;12.43;;;30.70;99.90;31.00;98603.00;;;;4864108;29;87279;-61
2022/07/06 09:59:25;;;;;;;12.77;11.40;;;30.50;99.90;30.80;98605.00;;;;4863785;29;87065;-60
2022/07/06 10:01:54;;;;;;;;;;;30.40;99.90;30.70;98607.00;;;;4864403;29;87898;-61
2022/07/06 10:04:21;;;;;;;18.38;12.52;;;30.20;99.90;30.60;98614.00;;;;4865115;29;88534;-61
2022/07/06 10:06:49;;;;;;;16.50;12.13;;;30.10;99.90;30.40;98609.00;;;;4863120;29;88821;-61
2022/07/06 10:09:15;;;;;;;16.38;11.75;;;29.80;99.90;30.10;98609.00;;;;4864000;29;87281;-63
2022/07/06 10:11:58;;;;;;;13.20;11.80;;;29.60;99.90;30.30;98609.00;;;;4863006;29;87110;-61
2022/07/06 10:14:30;;;;;;;15.95;12.30;;;29.70;99.90;30.30;98600.00;;;;4863499;29;88646;-61
2022/07/06 10:17:02;;;;;;;15.07;11.32;;;29.70;99.90;30.20;98599.00;;;;4846341;29;88517;-61
2022/07/06 10:19:30;;;;;;;12.65;11.35;;;29.60;99.90;30.30;98594.00;;;;4867272;29;87360;-61
2022/07/06 10:22:02;;;;;;;15.23;10.43;;;29.70;99.90;30.40;98592.00;;;;4865219;28;86396;-61
2022/07/06 10:24:30;;;;;;;12.00;10.57;;;29.90;99.90;30.40;98597.00;;;;4867511;29;87717;-62
2022/07/06 10:26:56;;;;;;;14.00;11.43;;;29.70;99.90;30.00;98584.00;;;;4866761;29;88563;-61
2022/07/06 10:29:24;;;;;;;12.55;11.25;;;29.40;99.90;29.80;98579.00;;;;4867011;29;88327;-61
2022/07/06 10:31:53;;;;;;;15.43;11.73;;;29.20;99.90;29.70;98596.00;;;;4867199;29;86987;-61
2022/07/06 10:34:20;;;;;;;13.48;10.70;;;29.10;99.90;29.30;98595.00;;;;4850855;29;88141;-60
2022/07/06 10:36:54;;;;;;;10.77;9.68;;;28.70;99.90;29.30;98587.00;;;;4866707;29;87284;-61
2022/07/06 10:42:53;;;;;;;12.40;10.43;;;28.60;99.90;29.00;98590.00;;;;4867584;29;86969;-60
2022/07/06 10:45:43;;;;;;;10.95;9.48;;;28.50;99.90;29.30;98575.00;;;;4851509;29;88252;-60
2022/07/06 10:48:12;;;;;;;12.93;10.43;;;28.80;99.90;29.80;98568.00;;;;4867155;29;88565;-60
2022/07/06 10:50:45;;;;;;;11.20;9.95;;;29.20;99.90;30.00;98569.00;;;;4867071;29;87581;-61
2022/07/06 10:53:27;;;;;;;11.45;10.35;;;29.40;99.90;29.90;98571.00;;;;4868256;29;87193;-60
2022/07/06 10:55:56;;;;;;;11.75;10.55;;;29.30;99.90;29.80;98572.00;;;;4867092;29;88587;-62
2022/07/06 10:58:46;;;;;;;13.13;10.77;;;29.20;99.90;29.80;98559.00;;;;4865733;29;88237;-61
2022/07/06 11:01:13;;;;;;;13.77;11.18;;;29.30;99.90;29.90;98575.00;;;;4863834;29;87417;-60
2022/07/06 11:03:42;;;;;;;13.10;10.75;;;29.40;99.90;30.00;98577.00;;;;4867230;29;87153;-63
2022/07/06 11:06:18;;;;;;;20.05;11.07;;;29.40;99.90;30.10;98576.00;;;;4866775;29;88739;-61
2022/07/06 11:08:55;;;;;;;11.73;9.88;;;29.50;99.90;30.00;98566.00;;;;4866472;29;87333;-60
2022/07/06 11:11:35;;;;;;;14.48;10.75;;;29.40;99.90;30.00;98571.00;;;;4867600;29;87945;-60
2022/07/06 11:14:16;;;;;;;14.45;10.82;;;29.40;99.90;30.00;98574.00;;;;4867039;29;86319;-61
2022/07/06 11:16:49;;;;;;;15.00;10.93;;;29.40;99.90;29.90;98571.00;;;;4865201;29;87881;-61
2022/07/06 11:19:20;;;;;;;11.90;10.80;;;29.30;99.90;30.00;98570.00;;;;4866219;29;87173;-61
2022/07/06 11:21:59;;;;;;;12.30;11.10;;;29.30;99.90;29.80;98568.00;;;;4864497;28;88079;-63
2022/07/06 11:24:29;;;;;;;15.25;11.55;;;29.20;99.90;29.80;98573.00;;;;4847917;29;87361;-62
2022/07/06 11:26:58;;;;;;;13.88;11.75;;;29.10;99.90;29.70;98571.00;;;;4831839;29;87491;-62
2022/07/06 11:29:26;;;;;;;15.88;10.80;;;29.10;99.90;29.80;98562.00;;;;4857312;29;87444;-62
2022/07/06 11:32:00;;;;;;;13.80;10.60;;;29.10;99.90;29.70;98557.00;;;;4866351;29;88018;-62
2022/07/06 11:34:32;;;;;;;11.32;10.23;;;29.20;99.90;29.90;98547.00;;;;4867520;29;87387;-62
2022/07/06 11:37:00;;;;;;;10.77;9.68;;;29.30;99.90;30.20;98543.00;;;;4862062;28;89161;-62
2022/07/06 11:39:31;;;;;;;15.55;11.60;;;29.60;99.90;30.50;98551.00;;;;4867440;29;87383;-62
2022/07/06 11:42:00;;;;;;;12.93;10.60;;;29.90;99.90;30.60;98555.00;;;;4866742;29;87018;-62
2022/07/06 11:44:27;;;;;;;15.10;12.05;;;30.00;99.90;30.50;98550.00;;;;4850920;29;87049;-61
2022/07/06 11:46:56;;;;;;;16.27;11.73;;;30.00;99.90;30.50;98552.00;;;;4849849;29;88570;-61
2022/07/06 11:49:24;;;;;;;15.30;11.07;;;29.90;99.90;30.30;98557.00;;;;4865886;29;88517;-62
2022/07/06 11:51:50;;;;;;;15.55;11.10;;;29.70;99.90;30.30;98548.00;;;;4866858;29;87667;-62
2022/07/06 11:54:20;;;;;;;14.43;11.20;;;29.70;99.90;30.00;98559.00;;;;4866991;29;87058;-61
2022/07/06 11:56:55;;;;;;;11.70;10.40;;;29.40;99.90;30.00;98555.00;;;;4866524;29;89128;-61
2022/07/06 11:59:34;;;;;;;12.30;10.65;;;29.40;99.90;30.20;98549.00;;;;4865351;29;87415;-61
2022/07/06 12:02:05;;;;;;;15.80;11.30;;;29.60;99.90;30.50;98552.00;;;;4861314;29;86989;-61
2022/07/06 12:04:36;;;;;;;16.85;11.23;;;29.80;99.90;30.50;98552.00;;;;4867315;29;86136;-60
2022/07/06 12:07:06;;;;;;;14.07;10.13;;;29.90;99.90;30.50;98556.00;;;;4849365;29;90518;-62
2022/07/06 12:09:37;;;;;;;13.52;10.73;;;29.90;99.90;30.50;98545.00;;;;4866074;29;88036;-63
2022/07/06 12:12:05;;;;;;;14.88;12.02;;;29.90;99.90;30.30;98547.00;;;;4865514;29;88072;-62
2022/07/06 12:14:34;;;;;;;12.85;10.65;;;29.60;99.90;30.10;98541.00;;;;4866281;29;86941;-60
2022/07/06 12:17:07;;;;;;;16.30;10.40;;;29.50;99.90;30.10;98544.00;;;;4866132;29;88395;-61
2022/07/06 12:19:35;;;;;;;12.43;11.13;;;29.50;99.90;30.00;98543.00;;;;4866083;29;87428;-60
2022/07/06 12:22:02;;;;;;;12.57;10.07;;;29.40;99.90;30.10;98528.00;;;;4848002;29;86998;-63
2022/07/06 12:24:31;;;;;;;13.95;11.30;;;29.50;99.90;30.20;98519.00;;;;4866588;29;87029;-61
2022/07/06 12:26:58;;;;;;;13.15;9.60;;;29.60;99.90;30.50;98505.00;;;;4866056;29;88169;-61
2022/07/06 12:29:25;;;;;;;14.85;10.85;;;29.90;99.90;30.50;98508.00;;;;4866166;29;87248;-60
2022/07/06 12:31:54;;;;;;;16.83;10.13;;;29.90;99.90;30.50;98509.00;;;;4865164;29;87085;-60
2022/07/06 12:34:23;;;;;;;15.82;10.55;;;29.80;99.90;30.30;98524.00;;;;4865976;29;87243;-60
2022/07/06 12:36:56;;;;;;;13.35;10.10;;;29.70;99.90;30.00;98528.00;;;;4863507;29;89004;-60
2022/07/06 12:39:28;;;;;;;12.45;10.10;;;29.40;99.90;30.10;98528.00;;;;4865356;29;89345;-62
2022/07/06 12:42:05;;;;;;;13.90;9.65;;;29.50;99.90;30.20;98526.00;;;;4865527;29;86998;-61
2022/07/06 12:44:31;;;;;;;13.75;9.50;;;29.70;99.90;30.30;98530.00;;;;4854445;29;87038;-61
2022/07/06 12:47:08;;;;;;;12.60;8.70;;;29.70;99.90;30.30;98529.00;;;;4865638;29;87780;-61
2022/07/06 12:49:37;;;;;;;15.70;8.77;;;29.80;99.90;30.40;98544.00;;;;4845663;29;88521;-61
2022/07/06 12:52:18;;;;;;;11.73;9.10;;;29.70;99.90;30.30;98550.00;;;;4863920;29;87509;-61
2022/07/06 12:54:48;;;;;;;;;;;29.70;99.90;30.00;98548.00;;;;4867126;29;86305;-61
2022/07/06 12:57:25;;;;;;;11.00;8.40;;;29.60;99.90;29.80;98542.00;;;;4866292;29;89055;-61
2022/07/06 12:59:54;;;;;;;10.88;8.10;;;29.30;99.90;29.70;98547.00;;;;4864520;29;87119;-61
2022/07/06 13:02:31;;;;;;;10.93;8.75;;;29.20;99.90;29.70;98530.00;;;;4864968;29;88459;-61
2022/07/06 13:05:12;;;;;;;10.65;8.40;;;29.20;99.90;29.90;98537.00;;;;4866370;29;87180;-61
2022/07/06 13:07:45;;;;;;;12.20;9.02;;;29.30;99.90;29.80;98522.00;;;;4848775;29;88990;-61
2022/07/06 13:10:13;;;;;;;12.65;9.30;;;29.30;99.90;29.70;98517.00;;;;4865917;29;87587;-61
2022/07/06 13:12:40;;;;;;;12.93;9.90;;;29.10;99.90;29.60;98524.00;;;;4864957;29;87148;-61
2022/07/06 13:15:08;;;;;;;16.25;9.38;;;29.00;99.90;29.50;98527.00;;;;4848541;29;87118;-61
2022/07/06 13:17:37;;;;;;;12.60;9.45;;;29.00;99.90;29.60;98534.00;;;;4864978;29;89679;-61
2022/07/06 13:20:05;;;;;;;15.52;9.93;;;29.00;99.90;29.50;98536.00;;;;4864864;28;88871;-62
2022/07/06 13:22:31;;;;;;;14.48;10.10;;;29.00;99.90;29.40;98519.00;;;;4861228;29;87022;-62
2022/07/06 13:24:57;;;;;;;10.70;9.60;;;28.90;99.90;29.20;98530.00;;;;4864960;29;86992;-60
2022/07/06 13:27:23;;;;;;;12.70;10.30;;;28.80;99.90;29.30;98536.00;;;;4865112;29;88469;-61
2022/07/06 13:29:49;;;;;;;14.68;11.05;;;28.80;99.90;29.40;98522.00;;;;4864536;29;88452;-61
2022/07/06 13:32:15;;;;;;;17.38;10.95;;;28.90;99.90;29.50;98519.00;;;;4864472;29;87849;-62
2022/07/06 13:34:42;;;;;;;15.43;10.75;;;29.00;99.90;29.50;98512.00;;;;4862362;29;87027;-60
2022/07/06 13:37:08;;;;;;;14.85;10.13;;;28.90;99.90;29.50;98516.00;;;;4864252;29;87824;-60
2022/07/06 13:39:34;;;;;;;16.95;10.02;;;29.00;99.90;29.60;98503.00;;;;4864135;29;87457;-62
2022/07/06 13:42:00;;;;;;;11.00;9.88;;;29.00;99.90;29.60;98513.00;;;;4851714;29;87326;-62
2022/07/06 13:44:26;;;;;;;12.73;9.80;;;29.10;99.90;29.70;98508.00;;;;4856644;29;86357;-62
2022/07/06 13:46:53;;;;;;;13.07;9.15;;;29.10;99.90;29.50;98515.00;;;;4860529;29;88617;-62
2022/07/06 13:49:19;;;;;;;11.65;8.80;;;28.90;99.90;29.40;98513.00;;;;4865097;29;87358;-61
2022/07/06 13:51:45;;;;;;;12.27;10.05;;;28.90;99.90;29.20;98516.00;;;;4864392;29;88045;-62